Gilmer, West Virginia
Current Conditions -  °F | °C
As of 2:15 PM on Tuesday 21 Oct 2014 (Local Time) from KW22 Reporting Station
Light Rain Light Rain  
Wind Chill: 50°   Ceiling: 600
Heat Index: 50°   Visibility: 5mi
Dew Point: 50°   Wind: 6mph
Humidity: 100%   Direction: 290°WNW
Pressure: 29.9"   Gusts: NA
Location:  38.88°N, 80.72°W
Report Text: KW22 211815Z AUTO 29005KT 5SM -RA BKN006 BKN015 OVC046 10/10 A2990 RMK AO2
Loading
Personal Weather Stations






























Interactive Weather Map
Tropical Storm Tracking
New forecast layout! Learn more

10-Day Weather Forecast

Advertisements
Track Severe Weather on mobile